createdAt,value
2018-08-03T00:00:27.834Z,72.05
2018-08-03T00:01:27.702Z,71.82
2018-08-03T00:02:27.622Z,71.76
2018-08-03T00:05:09.776Z,72.30
2018-08-03T00:06:09.671Z,72.60
2018-08-03T00:07:09.600Z,72.63
2018-08-03T00:08:09.514Z,72.60
2018-08-03T00:09:09.426Z,72.30
2018-08-03T00:11:51.749Z,73.18
2018-08-03T00:12:51.679Z,73.27
2018-08-03T00:13:51.641Z,73.08
2018-08-03T00:14:51.507Z,72.98
2018-08-03T00:15:51.472Z,73.18
2018-08-03T00:18:33.759Z,73.37
2018-08-03T00:19:33.671Z,73.75
2018-08-03T00:20:33.733Z,73.24
2018-08-03T00:21:33.523Z,73.33
2018-08-03T00:22:33.450Z,73.57
2018-08-03T00:25:15.771Z,74.49
2018-08-03T00:26:15.667Z,74.40
2018-08-03T00:33:31.475Z,74.79
2018-08-03T00:34:31.398Z,74.69
2018-08-03T00:37:13.255Z,74.30
2018-08-03T00:38:13.167Z,74.21
2018-08-03T00:39:13.126Z,74.11
2018-08-03T00:40:13.016Z,74.11
2018-08-03T00:41:12.931Z,74.49
2018-08-03T00:42:12.866Z,74.30
2018-08-03T00:43:12.826Z,74.49
2018-08-03T00:44:12.786Z,74.98
2018-08-03T00:45:12.697Z,74.88
2018-08-03T00:46:12.582Z,74.79
2018-08-03T00:47:12.477Z,75.07
2018-08-03T00:48:12.419Z,75.07
2018-08-03T00:49:12.358Z,75.37
2018-08-03T00:50:12.279Z,75.13
2018-08-03T00:51:12.199Z,75.27
2018-08-03T00:52:12.121Z,75.37
2018-08-03T00:53:12.029Z,75.33
2018-08-03T00:54:11.971Z,76.10
2018-08-03T00:55:11.875Z,75.43
2018-08-03T00:56:11.838Z,75.81
2018-08-03T00:57:12.199Z,76.01
2018-08-03T00:58:11.653Z,76.10
2018-08-03T00:59:11.567Z,75.71
2018-08-03T01:00:11.494Z,75.71
2018-08-03T01:01:11.443Z,75.91
2018-08-03T01:02:11.334Z,75.52
2018-08-03T01:03:11.272Z,75.62
2018-08-03T01:04:11.338Z,75.91
2018-08-03T01:05:11.132Z,76.01
2018-08-03T01:06:11.073Z,76.10
2018-08-03T01:07:10.957Z,75.81
2018-08-03T01:08:10.895Z,76.10
2018-08-03T01:09:10.813Z,76.29
2018-08-03T01:10:10.740Z,76.49
2018-08-03T01:11:10.681Z,76.68
2018-08-03T01:12:11.643Z,76.20
2018-08-03T01:13:10.505Z,76.49
2018-08-03T01:14:10.427Z,76.97
2018-08-03T01:15:10.335Z,76.97
2018-08-03T01:16:10.276Z,76.93
2018-08-03T01:17:10.203Z,76.78
2018-08-03T01:18:10.120Z,76.78
2018-08-03T01:19:10.033Z,76.78
2018-08-03T01:20:09.959Z,76.78
2018-08-03T01:21:09.966Z,77.51
2018-08-03T01:22:09.852Z,77.13
2018-08-03T01:23:09.725Z,76.84
2018-08-03T01:25:51.760Z,77.17
2018-08-03T01:26:51.694Z,77.03
2018-08-03T01:27:51.624Z,77.32
2018-08-03T01:30:33.757Z,77.51
2018-08-03T01:31:33.681Z,77.51
2018-08-03T01:32:33.640Z,77.51
2018-08-03T01:33:33.566Z,78.19
2018-08-03T01:34:33.459Z,77.71
2018-08-03T01:35:36.331Z,78.19
2018-08-03T01:36:33.298Z,78.19
2018-08-03T01:37:33.293Z,78.00
2018-08-03T01:38:33.180Z,78.29
2018-08-03T01:39:33.086Z,78.38
2018-08-03T01:40:32.986Z,78.38
2018-08-03T01:41:32.926Z,78.19
2018-08-03T01:42:32.841Z,78.00
2018-08-03T01:43:33.781Z,78.19
2018-08-03T01:44:32.704Z,78.19
2018-08-03T01:48:19.779Z,78.96
2018-08-03T01:49:19.698Z,78.19
2018-08-03T01:50:19.610Z,78.64
2018-08-03T01:51:19.545Z,78.87
2018-08-03T01:52:19.458Z,78.73
2018-08-03T01:53:19.426Z,78.83
2018-08-03T01:54:19.332Z,79.31
2018-08-03T01:55:19.238Z,78.73
2018-08-03T01:56:19.145Z,79.02
2018-08-03T01:57:19.078Z,78.83
2018-08-03T01:58:19.030Z,79.12
2018-08-03T01:59:18.950Z,78.67
2018-08-03T02:00:18.840Z,78.67
2018-08-03T02:01:19.028Z,78.87
2018-08-03T02:02:18.702Z,78.64
2018-08-03T02:03:18.666Z,79.31
2018-08-03T02:04:18.568Z,78.92
2018-08-03T02:05:18.493Z,79.50
2018-08-03T02:06:18.397Z,79.70
2018-08-03T02:07:18.402Z,79.22
2018-08-03T02:08:18.240Z,79.89
2018-08-03T02:09:18.199Z,78.73
2018-08-03T02:10:18.097Z,79.02
2018-08-03T02:11:18.015Z,79.02
2018-08-03T02:12:17.927Z,79.41
2018-08-03T02:13:17.872Z,79.22
2018-08-03T02:14:17.764Z,79.60
2018-08-03T02:15:18.749Z,79.22
2018-08-03T02:16:17.629Z,79.80
2018-08-03T02:17:17.557Z,79.22
2018-08-03T02:18:17.546Z,79.70
2018-08-03T02:19:17.398Z,79.70
2018-08-03T02:20:17.349Z,79.22
2018-08-03T02:21:17.239Z,79.41
2018-08-03T02:22:17.163Z,79.60
2018-08-03T02:23:17.092Z,79.41
2018-08-03T02:24:17.000Z,79.89
2018-08-03T02:25:17.001Z,79.50
2018-08-03T02:26:16.856Z,79.99
2018-08-03T02:27:16.813Z,79.70
2018-08-03T02:28:16.700Z,79.89
2018-08-03T02:29:16.619Z,79.60
2018-08-03T02:30:16.645Z,79.66
2018-08-03T02:31:16.476Z,80.05
2018-08-03T02:32:16.379Z,79.95
2018-08-03T02:33:16.350Z,80.28
2018-08-03T02:34:16.232Z,80.18
2018-08-03T02:35:16.197Z,79.60
2018-08-03T02:36:16.076Z,79.99
2018-08-03T02:37:16.010Z,79.70
2018-08-03T02:38:15.914Z,79.89
2018-08-03T02:39:15.859Z,79.41
2018-08-03T02:40:15.800Z,80.05
2018-08-03T02:41:15.703Z,79.85
2018-08-03T02:42:15.612Z,79.80
2018-08-03T02:43:15.536Z,79.80
2018-08-03T02:44:15.476Z,79.89
2018-08-03T02:46:57.312Z,79.22
2018-08-03T02:49:39.288Z,80.08
2018-08-03T02:50:40.236Z,79.95
2018-08-03T02:51:39.124Z,80.05
2018-08-03T02:54:21.391Z,80.82
2018-08-03T02:55:21.237Z,80.91
2018-08-03T02:56:21.143Z,80.82
2018-08-03T03:22:42.898Z,81.88
2018-08-03T03:23:42.780Z,81.40
2018-08-03T03:24:42.742Z,81.40
2018-08-03T03:25:42.624Z,81.78
2018-08-03T03:26:42.583Z,81.49
2018-08-03T03:27:42.589Z,81.68
2018-08-03T03:28:42.406Z,82.17
2018-08-03T03:29:42.334Z,81.59
2018-08-03T03:30:42.250Z,81.49
2018-08-03T03:31:42.166Z,81.78
2018-08-03T03:32:42.164Z,81.49
2018-08-03T03:33:42.036Z,82.46
2018-08-03T03:36:24.324Z,81.49
2018-08-03T03:37:24.220Z,82.17
2018-08-03T03:38:24.195Z,82.17
2018-08-03T03:39:24.091Z,82.56
2018-08-03T03:40:23.997Z,82.26
2018-08-03T03:41:23.932Z,82.46
2018-08-03T03:42:23.835Z,82.46
2018-08-03T03:43:23.774Z,81.88
2018-08-03T03:44:23.729Z,81.49
2018-08-03T03:45:23.629Z,82.07
2018-08-03T03:46:23.575Z,82.56
2018-08-03T03:47:23.567Z,82.46
2018-08-03T03:48:23.469Z,82.75
2018-08-03T03:49:23.351Z,83.14
2018-08-03T03:50:23.243Z,82.26
2018-08-03T03:51:23.236Z,82.46
2018-08-03T03:52:23.066Z,82.94
2018-08-03T03:53:23.124Z,83.09
2018-08-03T03:54:22.947Z,83.19
2018-08-03T03:55:22.934Z,83.87
2018-08-03T03:56:22.764Z,84.06
2018-08-03T03:57:22.710Z,84.06
2018-08-03T03:58:22.615Z,83.77
2018-08-03T03:59:22.676Z,83.77
2018-08-03T04:00:22.588Z,83.87
2018-08-03T04:01:22.492Z,83.87
2018-08-03T04:02:22.293Z,83.96
2018-08-03T04:03:22.219Z,84.35
2018-08-03T04:04:22.191Z,84.10
2018-08-03T04:05:22.075Z,83.67
2018-08-03T04:06:22.016Z,83.67
2018-08-03T04:07:21.971Z,83.67
2018-08-03T04:08:21.828Z,83.77
2018-08-03T04:09:21.765Z,84.16
2018-08-03T04:10:21.717Z,84.35
2018-08-03T04:11:21.627Z,84.25
2018-08-03T04:12:21.743Z,84.35
2018-08-03T04:13:21.458Z,84.44
2018-08-03T04:14:21.377Z,84.74
2018-08-03T04:15:21.335Z,84.93
2018-08-03T04:16:21.266Z,85.22
2018-08-03T04:17:21.150Z,85.02
2018-08-03T04:18:21.067Z,84.93
2018-08-03T04:19:21.080Z,85.41
2018-08-03T04:20:20.923Z,85.12
2018-08-03T04:21:20.842Z,84.64
2018-08-03T04:22:20.754Z,84.54
2018-08-03T04:23:20.788Z,84.74
2018-08-03T04:24:20.696Z,84.54
2018-08-03T04:25:20.541Z,84.35
2018-08-03T04:26:20.473Z,84.54
2018-08-03T04:27:20.371Z,84.54
2018-08-03T04:28:20.290Z,84.35
2018-08-03T04:29:20.284Z,84.35
2018-08-03T04:30:20.168Z,84.83
2018-08-03T04:31:20.118Z,85.02
2018-08-03T04:32:19.992Z,85.31
2018-08-03T04:33:19.914Z,84.83
2018-08-03T04:34:19.850Z,85.80
2018-08-03T04:35:19.776Z,84.98
2018-08-03T04:36:19.677Z,85.50
2018-08-03T04:39:01.873Z,85.66
2018-08-03T04:40:01.746Z,85.66
2018-08-03T04:41:01.703Z,85.75
2018-08-03T04:42:01.586Z,85.56
2018-08-03T04:43:01.676Z,85.60
2018-08-03T04:44:01.438Z,85.89
2018-08-03T04:45:01.343Z,85.50
2018-08-03T04:46:02.318Z,85.80
2018-08-03T04:47:01.190Z,85.31
2018-08-03T04:48:01.133Z,85.80
2018-08-03T04:49:01.040Z,85.99
2018-08-03T04:50:00.974Z,86.43
2018-08-03T04:51:00.918Z,86.72
2018-08-03T04:52:00.815Z,86.43
2018-08-03T04:53:00.728Z,85.60
2018-08-03T04:54:00.661Z,85.89
2018-08-03T04:55:00.707Z,85.89
2018-08-03T04:56:00.556Z,85.89
2018-08-03T04:57:00.430Z,85.80
2018-08-03T04:58:00.351Z,85.70
2018-08-03T04:59:00.265Z,85.89
2018-08-03T05:00:00.210Z,86.08
2018-08-03T05:01:00.138Z,85.99
2018-08-03T05:02:00.062Z,85.31
2018-08-03T05:02:59.954Z,85.02
2018-08-03T05:03:59.885Z,85.80
2018-08-03T05:04:59.815Z,85.50
2018-08-03T05:05:59.774Z,85.22
2018-08-03T05:06:59.656Z,84.64
2018-08-03T05:07:59.596Z,85.02
2018-08-03T05:08:59.496Z,85.02
2018-08-03T05:09:59.436Z,85.26
2018-08-03T05:10:59.353Z,85.06
2018-08-03T05:13:41.358Z,84.97
2018-08-03T05:16:23.353Z,84.83
2018-08-03T05:17:24.283Z,85.02
2018-08-03T05:18:23.177Z,85.36
2018-08-03T05:19:23.255Z,85.31
2018-08-03T05:20:23.025Z,85.26
2018-08-03T05:21:22.974Z,84.30
2018-08-03T05:22:22.888Z,84.48
2018-08-03T05:23:22.821Z,84.48
2018-08-03T05:24:22.792Z,84.39
2018-08-03T05:25:22.643Z,84.58
2018-08-03T05:26:22.559Z,83.91
2018-08-03T05:27:22.506Z,83.52
2018-08-03T05:28:22.437Z,84.10
2018-08-03T05:29:22.335Z,84.00
2018-08-03T05:30:22.285Z,83.72
2018-08-03T05:31:22.362Z,83.52
2018-08-03T05:32:22.110Z,84.30
2018-08-03T05:33:22.110Z,84.10
2018-08-03T05:34:21.967Z,84.14
2018-08-03T05:35:21.998Z,83.81
2018-08-03T05:36:21.840Z,83.72
2018-08-03T05:37:21.789Z,83.91
2018-08-03T05:38:21.666Z,83.91
2018-08-03T05:39:21.609Z,83.56
2018-08-03T05:40:21.488Z,83.85
2018-08-03T05:41:21.511Z,84.05
2018-08-03T05:42:21.348Z,83.37
2018-08-03T05:43:21.379Z,82.98
2018-08-03T05:44:21.180Z,83.08
2018-08-03T05:45:21.167Z,83.08
2018-08-03T05:46:21.027Z,83.37
2018-08-03T05:47:21.044Z,83.37
2018-08-03T05:48:20.907Z,82.79
2018-08-03T05:49:20.856Z,82.98
2018-08-03T05:50:20.750Z,83.51
2018-08-03T05:51:20.759Z,82.83
2018-08-03T05:52:20.573Z,83.12
2018-08-03T05:53:20.611Z,82.64
2018-08-03T05:54:20.457Z,82.25
2018-08-03T05:55:20.483Z,82.54
2018-08-03T05:56:20.267Z,81.87
2018-08-03T05:57:20.280Z,81.87
2018-08-03T05:58:20.234Z,81.57
2018-08-03T05:59:20.110Z,81.77
2018-08-03T06:00:20.050Z,81.19
2018-08-03T06:01:19.911Z,80.90
2018-08-03T06:02:19.815Z,80.90
2018-08-03T06:03:19.818Z,80.84
2018-08-03T06:04:19.660Z,80.74
2018-08-03T06:05:20.696Z,80.36
2018-08-03T06:06:19.493Z,80.26
2018-08-03T06:07:19.546Z,79.78
2018-08-03T06:08:19.366Z,80.16
2018-08-03T06:09:19.352Z,79.97
2018-08-03T06:10:19.224Z,79.91
2018-08-03T06:13:01.360Z,79.33
2018-08-03T06:15:43.375Z,78.50
2018-08-03T06:16:43.482Z,76.64
2018-08-03T06:17:43.194Z,73.74
2018-08-03T06:18:43.168Z,70.42
2018-08-03T06:19:43.063Z,66.93
2018-08-03T06:20:43.088Z,64.26
2018-08-03T06:21:42.913Z,62.76
2018-08-03T06:22:42.878Z,62.12
2018-08-03T06:23:42.872Z,60.32
2018-08-03T06:24:42.731Z,59.25
2018-08-03T06:25:42.609Z,58.76
2018-08-03T06:26:42.647Z,58.50
2018-08-03T06:27:42.457Z,57.71
2018-08-03T06:28:42.530Z,56.96
2018-08-03T06:29:42.334Z,56.20
2018-08-03T06:30:42.275Z,55.84
2018-08-03T06:41:22.773Z,52.30
2018-08-03T06:42:23.704Z,52.67
2018-08-03T06:43:22.605Z,53.62
2018-08-03T06:46:04.864Z,54.60
2018-08-03T06:47:04.915Z,55.01
2018-08-03T06:48:04.729Z,54.79
2018-08-03T06:49:04.680Z,54.72
2018-08-03T06:50:04.586Z,53.77
2018-08-03T06:51:04.523Z,52.42
2018-08-03T06:52:04.517Z,52.23
2018-08-03T06:53:04.376Z,51.25
2018-08-03T06:54:04.301Z,52.20
2018-08-03T06:55:04.242Z,51.27
2018-08-03T06:56:04.182Z,49.92
2018-08-03T06:57:04.120Z,49.04
2018-08-03T06:58:04.066Z,49.46
2018-08-03T07:00:45.913Z,50.39
2018-08-03T07:01:45.867Z,50.59
2018-08-03T07:02:45.777Z,49.99
2018-08-03T07:03:45.668Z,49.51
2018-08-03T07:04:45.588Z,49.90
2018-08-03T07:05:45.552Z,50.39
2018-08-03T07:06:45.451Z,50.85
2018-08-03T07:07:45.423Z,52.72
2018-08-03T07:08:45.351Z,52.81
2018-08-03T07:09:45.281Z,52.55
2018-08-03T07:10:45.189Z,51.79
2018-08-03T07:11:45.126Z,48.67
2018-08-03T07:12:45.059Z,48.16
2018-08-03T07:13:45.081Z,48.96
2018-08-03T07:14:44.954Z,49.63
2018-08-03T07:15:44.863Z,50.81
2018-08-03T07:16:44.797Z,50.61
2018-08-03T07:17:44.729Z,49.82
2018-08-03T07:18:44.676Z,49.63
2018-08-03T07:19:44.610Z,48.86
2018-08-03T07:20:44.524Z,48.67
2018-08-03T07:21:44.448Z,48.89
2018-08-03T07:22:44.492Z,48.89
2018-08-03T07:23:44.366Z,48.01
2018-08-03T07:24:44.278Z,47.99
2018-08-03T07:25:44.207Z,48.28
2018-08-03T07:26:44.187Z,48.86
2018-08-03T07:27:44.054Z,49.01
2018-08-03T07:28:44.042Z,48.69
2018-08-03T07:29:43.932Z,49.65
2018-08-03T07:30:43.866Z,49.26
2018-08-03T07:31:43.832Z,50.51
2018-08-03T07:32:43.704Z,50.24
2018-08-03T07:33:43.633Z,49.58
2018-08-03T07:34:43.615Z,49.51
2018-08-03T07:35:43.542Z,47.88
2018-08-03T07:36:43.447Z,47.49
2018-08-03T07:37:43.385Z,47.22
2018-08-03T07:38:43.331Z,47.83
2018-08-03T07:39:43.294Z,47.36
2018-08-03T07:40:43.176Z,47.03
2018-08-03T07:41:43.154Z,48.65
2018-08-03T07:42:43.019Z,48.67
2018-08-03T07:43:42.977Z,47.71
2018-08-03T07:44:42.991Z,47.93
2018-08-03T07:45:42.834Z,47.56
2018-08-03T07:46:42.767Z,47.31
2018-08-03T07:47:42.703Z,46.33
2018-08-03T07:48:42.689Z,45.81
2018-08-03T07:49:42.578Z,47.00
2018-08-03T07:50:42.646Z,47.71
2018-08-03T07:51:42.441Z,47.22
2018-08-03T07:52:42.399Z,46.25
2018-08-03T07:53:42.305Z,45.86
2018-08-03T07:54:42.245Z,47.07
2018-08-03T07:55:42.211Z,48.30
2018-08-03T07:56:42.135Z,48.86
2018-08-03T07:57:42.048Z,48.21
2018-08-03T07:58:41.984Z,49.08
2018-08-03T07:59:41.914Z,49.16
2018-08-03T08:00:41.851Z,49.08
2018-08-03T08:01:41.807Z,48.50
2018-08-03T08:02:41.771Z,48.99
2018-08-03T08:03:41.653Z,47.83
2018-08-03T08:04:41.744Z,47.66
2018-08-03T08:05:41.561Z,47.29
2018-08-03T08:06:41.476Z,46.92
2018-08-03T08:07:41.429Z,46.35
2018-08-03T08:08:41.324Z,46.41
2018-08-03T08:09:41.332Z,46.68
2018-08-03T08:10:41.210Z,46.80
2018-08-03T08:11:41.210Z,47.12
2018-08-03T08:12:41.079Z,45.88
2018-08-03T08:13:41.022Z,44.94
2018-08-03T08:14:40.941Z,44.27
2018-08-03T08:15:40.965Z,44.03
2018-08-03T08:16:40.813Z,45.12
2018-08-03T08:17:40.781Z,45.59
2018-08-03T08:18:40.675Z,45.61
2018-08-03T08:19:40.619Z,44.76
2018-08-03T08:20:40.551Z,45.04
2018-08-03T08:21:40.504Z,45.21
2018-08-03T08:22:40.439Z,44.76
2018-08-03T08:23:40.379Z,43.60
2018-08-03T08:24:40.295Z,44.59
2018-08-03T08:25:40.231Z,44.67
2018-08-03T08:26:40.164Z,45.42
2018-08-03T08:27:40.121Z,48.28
2018-08-03T08:28:40.086Z,48.96
2018-08-03T08:29:40.022Z,49.36
2018-08-03T08:30:39.916Z,49.55
2018-08-03T08:31:39.884Z,49.63
2018-08-03T08:32:39.812Z,48.96
2018-08-03T08:33:39.755Z,47.66
2018-08-03T08:34:39.659Z,47.49
2018-08-03T08:35:39.578Z,46.53
2018-08-03T08:36:39.519Z,47.78
2018-08-03T08:37:39.477Z,46.45
2018-08-03T08:38:39.427Z,45.47
2018-08-03T08:39:40.370Z,46.15
2018-08-03T08:40:39.260Z,47.38
2018-08-03T08:41:39.292Z,45.41
2018-08-03T08:42:39.139Z,45.68
2018-08-03T08:43:39.179Z,44.65
2018-08-03T08:44:39.051Z,44.37
2018-08-03T08:45:38.956Z,44.00
2018-08-03T08:46:38.910Z,44.45
2018-08-03T08:47:38.827Z,45.68
2018-08-03T08:48:38.774Z,45.47
2018-08-03T08:49:38.733Z,46.75
2018-08-03T08:50:38.642Z,45.21
2018-08-03T08:51:38.569Z,44.00
2018-08-03T08:52:38.496Z,44.59
2018-08-03T08:53:38.451Z,43.98
2018-08-03T08:54:38.445Z,44.18
2018-08-03T08:55:38.329Z,44.06
2018-08-03T08:56:38.264Z,43.80
2018-08-03T08:57:38.260Z,44.24
2018-08-03T08:58:38.157Z,42.97
2018-08-03T08:59:38.147Z,43.07
2018-08-03T09:00:37.984Z,42.01
2018-08-03T09:01:37.940Z,41.65
2018-08-03T09:02:37.984Z,40.98
2018-08-03T09:03:37.832Z,40.60
2018-08-03T09:04:37.785Z,40.29
2018-08-03T09:05:37.711Z,41.28
2018-08-03T09:06:37.628Z,41.18
2018-08-03T09:07:37.676Z,40.68
2018-08-03T09:08:37.501Z,40.96
2018-08-03T09:09:37.568Z,40.96
2018-08-03T09:10:37.421Z,42.01
2018-08-03T09:13:19.421Z,43.17
2018-08-03T09:14:19.390Z,43.43
2018-08-03T09:15:19.312Z,43.52
2018-08-03T09:16:19.306Z,44.65
2018-08-03T09:17:19.176Z,44.37
2018-08-03T09:20:01.456Z,42.85
2018-08-03T09:21:01.414Z,42.29
2018-08-03T09:41:41.328Z,42.66
2018-08-03T09:42:41.276Z,43.62
2018-08-03T09:43:41.201Z,43.52
2018-08-03T09:44:41.136Z,42.68
2018-08-03T09:45:41.059Z,42.40
2018-08-03T09:46:41.069Z,42.68
2018-08-03T09:47:40.933Z,42.90
2018-08-03T09:48:41.018Z,41.55
2018-08-03T09:49:40.861Z,40.74
2018-08-03T09:50:40.808Z,42.05
2018-08-03T09:51:40.719Z,40.96
2018-08-03T09:52:40.691Z,42.05
2018-08-03T09:53:40.584Z,41.75
2018-08-03T09:54:40.537Z,41.00
2018-08-03T09:55:40.460Z,40.88
2018-08-03T09:56:40.419Z,41.18
2018-08-03T09:57:40.372Z,41.08
2018-08-03T09:58:40.298Z,41.14
2018-08-03T09:59:40.236Z,41.10
2018-08-03T10:02:22.482Z,41.04
2018-08-03T10:05:04.458Z,40.42
2018-08-03T10:06:04.584Z,40.74
2018-08-03T10:07:04.698Z,40.15
2018-08-03T10:08:04.737Z,41.10
2018-08-03T10:09:04.702Z,41.00
2018-08-03T10:10:04.144Z,40.66
2018-08-03T10:11:04.089Z,41.18
2018-08-03T10:12:04.051Z,41.38
2018-08-03T10:13:03.961Z,40.66
2018-08-03T10:14:04.033Z,41.83
2018-08-03T10:15:03.858Z,42.03
2018-08-03T10:16:03.799Z,42.03
2018-08-03T10:17:03.745Z,41.93
2018-08-03T10:18:03.711Z,41.55
2018-08-03T10:19:03.642Z,41.85
2018-08-03T10:20:03.577Z,41.89
2018-08-03T10:21:03.500Z,41.61
2018-08-03T10:22:03.460Z,40.82
2018-08-03T10:23:03.539Z,41.24
2018-08-03T10:24:03.365Z,41.73
2018-08-03T10:25:03.282Z,42.58
2018-08-03T10:26:03.219Z,42.01
2018-08-03T10:27:03.187Z,42.38
2018-08-03T10:28:03.088Z,42.58
2018-08-03T10:29:03.057Z,41.93
2018-08-03T10:30:02.977Z,42.43
2018-08-03T10:31:02.918Z,42.21
2018-08-03T10:32:03.020Z,42.76
2018-08-03T10:33:02.810Z,43.55
2018-08-03T10:34:02.751Z,42.78
2018-08-03T10:35:02.694Z,43.37
2018-08-03T10:36:02.617Z,42.13
2018-08-03T10:37:02.549Z,40.88
2018-08-03T10:38:02.496Z,40.42
2018-08-03T10:39:02.465Z,39.69
2018-08-03T10:40:02.374Z,41.95
2018-08-03T10:41:02.326Z,43.21
2018-08-03T10:43:44.434Z,42.03
2018-08-03T10:44:45.463Z,40.88
2018-08-03T10:45:44.317Z,40.03
2018-08-03T10:46:44.267Z,40.09
2018-08-03T10:47:44.192Z,39.42
2018-08-03T10:48:44.229Z,40.26
2018-08-03T10:49:44.140Z,41.24
2018-08-03T10:50:44.208Z,41.20
2018-08-03T10:51:43.961Z,40.26
2018-08-03T10:52:43.922Z,39.73
2018-08-03T10:53:43.865Z,38.74
2018-08-03T10:54:43.829Z,38.42
2018-08-03T10:55:43.764Z,40.19
2018-08-03T10:56:43.686Z,40.64
2018-08-03T10:57:43.657Z,39.69
2018-08-03T10:58:43.566Z,38.54
2018-08-03T10:59:43.601Z,38.56
2018-08-03T11:00:44.505Z,38.05
2018-08-03T11:01:43.436Z,38.24
2018-08-03T11:02:43.355Z,38.05
2018-08-03T11:03:43.276Z,38.62
2018-08-03T11:04:43.229Z,38.40
2018-08-03T11:05:43.161Z,38.82
2018-08-03T11:06:43.192Z,38.72
2018-08-03T11:07:43.059Z,37.53
2018-08-03T11:10:24.995Z,36.02
2018-08-03T11:11:45.899Z,34.81
2018-08-03T11:12:24.824Z,35.44
2018-08-03T11:13:24.790Z,36.29
2018-08-03T11:14:24.729Z,36.51
2018-08-03T11:15:24.803Z,34.94
2018-08-03T11:16:24.622Z,34.84
2018-08-03T11:17:24.700Z,35.24
2018-08-03T11:19:48.947Z,33.17
2018-08-03T11:20:50.024Z,35.30
2018-08-03T11:21:48.880Z,36.41
2018-08-03T11:22:48.880Z,36.05
2018-08-03T11:23:48.726Z,33.69
2018-08-03T11:24:48.816Z,34.30
2018-08-03T11:25:48.615Z,34.52
2018-08-03T11:26:48.584Z,35.17
2018-08-03T11:27:48.525Z,36.19
2018-08-03T11:28:48.513Z,38.17
2018-08-03T11:29:48.481Z,37.51
2018-08-03T11:30:48.397Z,36.77
2018-08-03T11:31:48.299Z,36.08
2018-08-03T11:32:48.321Z,35.31
2018-08-03T11:33:48.158Z,34.78
2018-08-03T11:34:48.130Z,35.25
2018-08-03T11:35:48.039Z,35.83
2018-08-03T11:36:48.078Z,35.27
2018-08-03T11:37:47.932Z,35.29
2018-08-03T11:38:47.958Z,35.39
2018-08-03T11:39:47.805Z,35.98
2018-08-03T11:40:47.882Z,34.83
2018-08-03T11:41:47.727Z,34.45
2018-08-03T11:42:47.680Z,34.43
2018-08-03T11:43:47.670Z,35.22
2018-08-03T11:44:47.579Z,36.37
2018-08-03T11:45:47.466Z,37.18
2018-08-03T11:46:47.494Z,36.97
2018-08-03T11:47:47.439Z,37.90
2018-08-03T11:48:47.400Z,39.78
2018-08-03T11:49:47.238Z,40.64
2018-08-03T11:50:47.317Z,40.88
2018-08-03T11:51:47.108Z,40.84
2018-08-03T11:52:48.290Z,39.87
2018-08-03T11:53:46.995Z,38.49
2018-08-03T11:54:47.034Z,38.71
2018-08-03T11:55:46.881Z,38.63
2018-08-03T11:58:29.020Z,39.78
2018-08-03T11:59:28.960Z,39.65
2018-08-03T12:00:28.835Z,39.26
2018-08-03T12:01:28.861Z,40.41
2018-08-03T12:02:28.745Z,40.78
2018-08-03T12:03:28.754Z,41.85
2018-08-03T12:04:28.603Z,42.10
2018-08-03T12:05:28.566Z,42.02
2018-08-03T12:06:28.540Z,41.35
2018-08-03T12:07:29.546Z,41.33
2018-08-03T12:08:28.358Z,42.04
2018-08-03T12:09:28.405Z,41.99
2018-08-03T12:10:28.214Z,40.33
2018-08-03T12:11:28.320Z,40.29
2018-08-03T12:12:28.175Z,40.58
2018-08-03T12:13:29.171Z,40.88
2018-08-03T12:14:27.992Z,40.88
2018-08-03T12:15:27.924Z,40.58
2018-08-03T12:16:27.850Z,41.02
2018-08-03T12:17:27.892Z,42.65
2018-08-03T12:18:27.732Z,43.04
2018-08-03T12:19:27.861Z,43.16
2018-08-03T12:20:27.714Z,43.46
2018-08-03T12:23:09.469Z,42.12
2018-08-03T12:24:09.517Z,41.85
2018-08-03T12:25:09.348Z,42.65
2018-08-03T12:26:09.376Z,42.38
2018-08-03T12:27:09.210Z,41.00
2018-08-03T12:28:10.312Z,41.09
2018-08-03T12:29:09.073Z,40.61
2018-08-03T12:31:51.073Z,42.28
2018-08-03T12:32:50.994Z,40.80
2018-08-03T12:33:50.831Z,40.51
2018-08-03T12:34:50.883Z,40.72
2018-08-03T12:35:50.765Z,42.02
2018-08-03T12:36:50.708Z,41.55
2018-08-03T12:37:50.597Z,40.96
2018-08-03T12:38:50.594Z,38.96
2018-08-03T12:39:50.480Z,39.86
2018-08-03T12:40:50.448Z,39.76
2018-08-03T12:41:50.304Z,39.73
2018-08-03T12:42:50.314Z,41.00
2018-08-03T12:43:50.179Z,41.09
2018-08-03T12:44:50.172Z,40.90
2018-08-03T12:45:50.072Z,40.21
2018-08-03T12:48:32.017Z,39.84
2018-08-03T12:49:33.019Z,39.81
2018-08-03T12:50:31.871Z,40.03
2018-08-03T12:51:31.863Z,39.65
2018-08-03T12:52:31.778Z,39.76
2018-08-03T12:53:31.657Z,39.87
2018-08-03T12:54:31.680Z,39.87
2018-08-03T12:57:13.489Z,38.59
2018-08-03T12:58:13.452Z,38.39
2018-08-03T12:59:13.380Z,37.59
2018-08-03T13:00:13.309Z,37.96
2018-08-03T13:01:13.244Z,37.65
2018-08-03T13:02:13.154Z,38.83
2018-08-03T13:03:13.100Z,38.24
2018-08-03T13:04:13.066Z,38.14
2018-08-03T13:05:12.954Z,39.92
2018-08-03T13:06:12.886Z,37.98
2018-08-03T13:07:12.836Z,37.57
2018-08-03T13:09:55.014Z,37.85
2018-08-03T13:10:54.938Z,38.04
2018-08-03T13:11:54.856Z,38.45
2018-08-03T13:12:54.937Z,38.18
2018-08-03T13:13:54.713Z,37.98
2018-08-03T13:14:54.880Z,36.50
2018-08-03T13:15:54.586Z,36.30
2018-08-03T13:16:54.642Z,38.10
2018-08-03T13:17:54.457Z,36.12
2018-08-03T13:18:54.437Z,35.93
2018-08-03T13:38:16.555Z,38.54
2018-08-03T13:39:16.488Z,38.24
2018-08-03T13:40:16.392Z,38.43
2018-08-03T13:41:16.445Z,38.56
2018-08-03T13:42:16.296Z,38.35
2018-08-03T13:43:16.321Z,37.88
2018-08-03T13:44:16.127Z,37.96
2018-08-03T13:45:16.128Z,38.04
2018-08-03T13:46:16.007Z,38.04
2018-08-03T13:47:16.038Z,38.16
2018-08-03T13:48:15.857Z,38.06
2018-08-03T13:49:15.949Z,38.06
2018-08-03T13:50:15.745Z,38.16
2018-08-03T13:51:15.789Z,38.04
2018-08-03T13:52:15.600Z,38.43
2018-08-03T13:53:15.594Z,38.22
2018-08-03T13:54:15.472Z,38.14
2018-08-03T13:55:15.480Z,38.73
2018-08-03T13:56:15.358Z,38.04
2018-08-03T13:57:16.365Z,37.07
2018-08-03T13:58:15.326Z,36.68
2018-08-03T13:59:15.192Z,37.27
2018-08-03T14:00:15.055Z,37.66
2018-08-03T14:02:57.067Z,37.66
2018-08-03T14:05:39.035Z,37.26
2018-08-03T14:06:38.992Z,37.15
2018-08-03T14:07:38.899Z,37.26
2018-08-03T14:08:38.904Z,36.76
2018-08-03T14:09:38.753Z,36.76
2018-08-03T14:10:38.717Z,37.65
2018-08-03T14:11:38.612Z,36.76
2018-08-03T14:12:39.691Z,37.05
2018-08-03T14:13:38.464Z,37.35
2018-08-03T14:14:38.445Z,37.65
2018-08-03T14:15:38.328Z,38.06
2018-08-03T14:16:38.359Z,37.87
2018-08-03T14:17:38.228Z,38.06
2018-08-03T14:18:38.246Z,37.37
2018-08-03T14:19:38.063Z,37.26
2018-08-03T14:20:38.054Z,37.26
2018-08-03T14:21:37.930Z,37.05
2018-08-03T14:22:37.967Z,37.05
2018-08-03T14:23:37.812Z,37.45
2018-08-03T14:26:20.013Z,36.74
2018-08-03T14:27:20.024Z,36.55
2018-08-03T14:28:19.920Z,36.84
2018-08-03T14:29:19.901Z,36.35
2018-08-03T14:30:19.740Z,36.65
2018-08-03T14:31:19.867Z,35.96
2018-08-03T14:32:19.635Z,36.35
2018-08-03T14:33:19.667Z,37.26
2018-08-03T14:34:19.484Z,37.14
2018-08-03T14:35:19.546Z,36.84
2018-08-03T14:36:19.341Z,36.33
2018-08-03T14:37:19.361Z,36.72
2018-08-03T14:38:19.238Z,37.02
2018-08-03T14:39:19.312Z,36.65
2018-08-03T14:40:19.068Z,36.82
2018-08-03T14:41:19.076Z,36.55
2018-08-03T14:42:18.954Z,36.63
2018-08-03T14:43:18.963Z,36.82
2018-08-03T14:44:18.817Z,37.02
2018-08-03T14:45:18.812Z,36.33
2018-08-03T14:46:18.653Z,36.23
2018-08-03T14:47:18.824Z,36.94
2018-08-03T14:48:18.519Z,36.25
2018-08-03T14:49:18.485Z,37.02
2018-08-03T14:50:18.448Z,36.23
2018-08-03T14:51:18.402Z,36.43
2018-08-03T14:52:18.286Z,36.33
2018-08-03T14:55:00.596Z,37.01
2018-08-03T14:56:00.526Z,36.72
2018-08-03T14:57:00.390Z,36.32
2018-08-03T14:58:00.482Z,35.82
2018-08-03T14:59:00.336Z,35.80
2018-08-03T15:00:00.275Z,36.10
2018-08-03T15:01:00.127Z,36.30
2018-08-03T15:02:00.149Z,36.59
2018-08-03T15:02:59.983Z,36.40
2018-08-03T15:05:42.030Z,36.80
2018-08-03T15:23:21.944Z,35.23
2018-08-03T15:26:04.044Z,36.22
2018-08-03T15:28:46.026Z,36.71
2018-08-03T15:30:06.987Z,38.87
2018-08-03T15:30:45.889Z,38.38
2018-08-03T15:31:45.958Z,35.92
2018-08-03T15:32:45.773Z,35.72
2018-08-03T15:33:45.713Z,35.82
2018-08-03T15:34:45.664Z,36.22